Aviation Digital Data Service (ADDS)

Output produced by METARs form (2101 UTC 13 August 2020)
found at http://aviationweather.gov/metar/data/
 
METAR text: KCHD 132047Z 28005KT 10SM BKN220 44/07 A2979
Conditions at: KCHD (CHANDLER , AZ, US) observed 2047 UTC 13 August 2020
Temperature: 44.0°C (111°F)
Dewpoint: 7.0°C (45°F) [RH = 11%]
Pressure (altimeter): 29.79 inches Hg (1008.9 mb)
Winds: from the W (280 degrees) at 6 MPH (5 knots; 2.6 m/s)
Visibility: 10 or more miles (16+ km)
Ceiling: 22000 feet AGL
Clouds: broken clouds at 22000 feet AGL
Weather: no significant weather observed at this time

METAR text: KCHD 131947Z VRB03KT 10SM BKN220 43/11 A2982
Conditions at: KCHD (CHANDLER , AZ, US) observed 1947 UTC 13 August 2020
Temperature: 43.0°C (109°F)
Dewpoint: 11.0°C (52°F) [RH = 15%]
Pressure (altimeter): 29.82 inches Hg (1009.9 mb)
Winds: variable direction winds at 3 MPH (3 knots; 1.5 m/s)
Visibility: 10 or more miles (16+ km)
Ceiling: 22000 feet AGL
Clouds: broken clouds at 22000 feet AGL
Weather: no significant weather observed at this time

METAR text: KCHD 131847Z 23006KT 10SM BKN220 42/12 A2984
Conditions at: KCHD (CHANDLER , AZ, US) observed 1847 UTC 13 August 2020
Temperature: 42.0°C (108°F)
Dewpoint: 12.0°C (54°F) [RH = 17%]
Pressure (altimeter): 29.84 inches Hg (1010.6 mb)
Winds: from the SW (230 degrees) at 7 MPH (6 knots; 3.1 m/s)
Visibility: 10 or more miles (16+ km)
Ceiling: 22000 feet AGL
Clouds: broken clouds at 22000 feet AGL
Weather: no significant weather observed at this time

METAR text: KCHD 131747Z 17005KT 10SM BKN220 40/12 A2986
Conditions at: KCHD (CHANDLER , AZ, US) observed 1747 UTC 13 August 2020
Temperature: 40.0°C (104°F)
Dewpoint: 12.0°C (54°F) [RH = 19%]
Pressure (altimeter): 29.86 inches Hg (1011.3 mb)
Winds: from the S (170 degrees) at 6 MPH (5 knots; 2.6 m/s)
Visibility: 10 or more miles (16+ km)
Ceiling: 22000 feet AGL
Clouds: broken clouds at 22000 feet AGL
Weather: no significant weather observed at this time

METAR text: KCHD 131647Z 08004KT 10SM BKN220 38/13 A2987
Conditions at: KCHD (CHANDLER , AZ, US) observed 1647 UTC 13 August 2020
Temperature: 38.0°C (100°F)
Dewpoint: 13.0°C (55°F) [RH = 23%]
Pressure (altimeter): 29.87 inches Hg (1011.6 mb)
Winds: from the E (80 degrees) at 5 MPH (4 knots; 2.1 m/s)
Visibility: 10 or more miles (16+ km)
Ceiling: 22000 feet AGL
Clouds: broken clouds at 22000 feet AGL
Weather: no significant weather observed at this time

METAR text: KCHD 131547Z 00000KT 10SM BKN220 35/14 A2987
Conditions at: KCHD (CHANDLER , AZ, US) observed 1547 UTC 13 August 2020
Temperature: 35.0°C (95°F)
Dewpoint: 14.0°C (57°F) [RH = 28%]
Pressure (altimeter): 29.87 inches Hg (1011.6 mb)
Winds: calm
Visibility: 10 or more miles (16+ km)
Ceiling: 22000 feet AGL
Clouds: broken clouds at 22000 feet AGL
Weather: no significant weather observed at this time

METAR text: KCHD 131447Z 00000KT 10SM BKN220 33/13 A2986
Conditions at: KCHD (CHANDLER , AZ, US) observed 1447 UTC 13 August 2020
Temperature: 33.0°C (91°F)
Dewpoint: 13.0°C (55°F) [RH = 30%]
Pressure (altimeter): 29.86 inches Hg (1011.3 mb)
Winds: calm
Visibility: 10 or more miles (16+ km)
Ceiling: 22000 feet AGL
Clouds: broken clouds at 22000 feet AGL
Weather: no significant weather observed at this time

METAR text: KCHD 131347Z 00000KT 10SM BKN220 31/12 A2985
Conditions at: KCHD (CHANDLER , AZ, US) observed 1347 UTC 13 August 2020
Temperature: 31.0°C (88°F)
Dewpoint: 12.0°C (54°F) [RH = 31%]
Pressure (altimeter): 29.85 inches Hg (1010.9 mb)
Winds: calm
Visibility: 10 or more miles (16+ km)
Ceiling: 22000 feet AGL
Clouds: broken clouds at 22000 feet AGL
Weather: no significant weather observed at this time

METAR text: KCHD 131247Z 00000KT 10SM BKN220 30/13 A2983
Conditions at: KCHD (CHANDLER , AZ, US) observed 1247 UTC 13 August 2020
Temperature: 30.0°C (86°F)
Dewpoint: 13.0°C (55°F) [RH = 35%]
Pressure (altimeter): 29.83 inches Hg (1010.2 mb)
Winds: calm
Visibility: 10 or more miles (16+ km)
Ceiling: 22000 feet AGL
Clouds: broken clouds at 22000 feet AGL
Weather: no significant weather observed at this time